createdAt,value
2022-10-13T00:00:43.485Z,37.55
2022-10-13T00:03:10.639Z,26.33
2022-10-13T00:05:42.255Z,32.28
2022-10-13T00:08:09.306Z,27.92
2022-10-13T00:10:38.091Z,31.83
2022-10-13T00:13:05.671Z,31.88
2022-10-13T00:15:32.405Z,24.73
2022-10-13T00:17:58.948Z,27.80
2022-10-13T00:20:25.470Z,30.48
2022-10-13T00:22:51.954Z,19.30
2022-10-13T00:25:18.411Z,26.05
2022-10-13T00:27:44.846Z,32.67
2022-10-13T00:30:11.684Z,28.70
2022-10-13T00:32:38.230Z,30.02
2022-10-13T00:35:05.141Z,21.55
2022-10-13T00:37:31.621Z,26.33
2022-10-13T00:39:58.075Z,28.05
2022-10-13T00:42:26.378Z,25.95
2022-10-13T00:45:19.760Z,22.98
2022-10-13T00:47:51.682Z,27.05
2022-10-13T00:52:47.781Z,24.48
2022-10-13T00:55:18.101Z,25.13
2022-10-13T00:57:48.351Z,19.73
2022-10-13T01:00:15.143Z,22.52
2022-10-13T01:02:41.776Z,19.20
2022-10-13T01:05:08.890Z,21.55
2022-10-13T01:07:35.884Z,23.35
2022-10-13T01:10:04.001Z,26.83
2022-10-13T01:12:46.533Z,23.75
2022-10-13T01:15:30.092Z,23.40
2022-10-13T01:18:05.779Z,19.63
2022-10-13T01:20:47.452Z,22.67
2022-10-13T01:23:51.573Z,23.73
2022-10-13T01:26:52.511Z,21.20
2022-10-13T01:29:53.213Z,24.45
2022-10-13T01:32:31.783Z,27.42
2022-10-13T01:35:17.259Z,24.77
2022-10-13T01:37:50.999Z,21.05
2022-10-13T01:40:38.454Z,23.85
2022-10-13T01:43:08.384Z,21.83
2022-10-13T01:45:40.746Z,23.38
2022-10-13T01:48:08.833Z,24.20
2022-10-13T01:50:38.150Z,15.02
2022-10-13T01:53:06.103Z,22.55
2022-10-13T01:55:32.579Z,20.15
2022-10-13T01:57:59.164Z,24.45
2022-10-13T02:00:26.267Z,23.35
2022-10-13T02:03:23.828Z,21.50
2022-10-13T02:06:15.712Z,21.40
2022-10-13T02:09:18.572Z,23.88
2022-10-13T02:11:52.024Z,19.42
2022-10-13T02:14:26.498Z,19.67
2022-10-13T02:16:55.457Z,20.77
2022-10-13T02:19:22.950Z,21.65
2022-10-13T02:21:51.480Z,17.13
2022-10-13T02:24:18.199Z,18.65
2022-10-13T02:26:45.483Z,21.13
2022-10-13T02:29:14.410Z,27.70
2022-10-13T02:31:41.865Z,23.25
2022-10-13T02:34:08.747Z,26.45
2022-10-13T02:36:37.793Z,25.48
2022-10-13T02:39:05.286Z,26.65
2022-10-13T02:41:31.798Z,34.65
2022-10-13T02:43:58.250Z,27.05
2022-10-13T02:46:24.866Z,29.95
2022-10-13T02:48:51.410Z,32.03
2022-10-13T02:51:17.955Z,35.25
2022-10-13T02:53:44.547Z,29.42
2022-10-13T02:56:11.004Z,27.15
2022-10-13T02:58:37.490Z,27.63
2022-10-13T03:01:08.894Z,31.23
2022-10-13T03:03:35.992Z,29.77
2022-10-13T03:06:02.787Z,30.27
2022-10-13T03:08:29.681Z,27.05
2022-10-13T03:10:56.141Z,22.80
2022-10-13T03:13:22.697Z,25.73
2022-10-13T03:15:49.333Z,22.50
2022-10-13T03:18:16.343Z,22.25
2022-10-13T03:20:43.050Z,23.38
2022-10-13T03:23:09.503Z,24.88
2022-10-13T03:25:37.414Z,23.33
2022-10-13T03:28:03.917Z,26.48
2022-10-13T03:30:30.415Z,27.30
2022-10-13T03:32:56.842Z,27.50
2022-10-13T03:35:23.358Z,22.83
2022-10-13T03:37:49.813Z,36.30
2022-10-13T03:40:16.401Z,33.72
2022-10-13T03:42:42.931Z,31.02
2022-10-13T03:45:09.979Z,30.33
2022-10-13T03:47:36.877Z,27.55
2022-10-13T03:50:04.771Z,25.83
2022-10-13T03:52:31.314Z,32.40
2022-10-13T03:54:57.847Z,31.85
2022-10-13T03:57:24.422Z,31.13
2022-10-13T03:59:50.909Z,32.13
2022-10-13T04:02:17.579Z,23.23
2022-10-13T04:04:44.379Z,29.50
2022-10-13T04:07:10.831Z,27.65
2022-10-13T04:09:37.654Z,29.42
2022-10-13T04:12:04.471Z,28.95
2022-10-13T04:14:30.943Z,27.20
2022-10-13T04:16:57.487Z,29.08
2022-10-13T04:19:23.982Z,28.88
2022-10-13T04:21:50.461Z,26.52
2022-10-13T04:24:18.266Z,25.52
2022-10-13T04:26:45.041Z,25.75
2022-10-13T04:29:12.111Z,28.85
2022-10-13T04:31:40.588Z,29.30
2022-10-13T04:34:07.852Z,25.98
2022-10-13T04:36:34.337Z,28.35
2022-10-13T04:39:00.839Z,26.60
2022-10-13T04:41:27.339Z,27.85
2022-10-13T04:43:54.355Z,26.38
2022-10-13T04:46:26.463Z,25.98
2022-10-13T04:48:53.301Z,26.05
2022-10-13T04:51:22.506Z,24.83
2022-10-13T04:53:53.757Z,24.38
2022-10-13T04:56:20.286Z,35.45
2022-10-13T04:58:46.829Z,27.30
2022-10-13T05:01:21.531Z,24.55
2022-10-13T05:03:56.448Z,27.55
2022-10-13T05:06:31.735Z,32.83
2022-10-13T05:08:58.937Z,28.90
2022-10-13T05:11:26.828Z,33.03
2022-10-13T05:13:53.947Z,26.20
2022-10-13T05:16:22.246Z,24.15
2022-10-13T05:18:49.860Z,28.35
2022-10-13T05:21:24.902Z,29.38
2022-10-13T05:23:54.344Z,34.53
2022-10-13T05:26:22.674Z,29.83
2022-10-13T05:28:49.419Z,34.08
2022-10-13T05:31:18.917Z,28.63
2022-10-13T05:33:46.844Z,35.83
2022-10-13T05:36:18.693Z,28.00
2022-10-13T05:38:45.402Z,35.92
2022-10-13T05:41:13.967Z,29.80
2022-10-13T05:43:42.075Z,35.55
2022-10-13T05:46:08.649Z,31.60
2022-10-13T05:48:35.663Z,36.72
2022-10-13T05:51:04.922Z,48.28
2022-10-13T05:53:35.732Z,49.13
2022-10-13T05:56:08.731Z,36.55
2022-10-13T05:58:40.724Z,42.10
2022-10-13T06:03:35.829Z,40.38
2022-10-13T06:06:02.503Z,35.03
2022-10-13T06:08:29.796Z,39.05
2022-10-13T06:10:56.615Z,39.92
2022-10-13T06:13:23.099Z,36.35
2022-10-13T06:15:49.591Z,49.28
2022-10-13T06:18:16.086Z,40.20
2022-10-13T06:20:43.632Z,46.63
2022-10-13T06:23:10.170Z,44.88
2022-10-13T06:25:36.864Z,40.25
2022-10-13T06:28:03.525Z,43.03
2022-10-13T06:30:29.995Z,41.33
2022-10-13T06:32:56.555Z,41.63
2022-10-13T06:35:23.657Z,47.67
2022-10-13T06:37:53.098Z,41.72
2022-10-13T06:40:19.689Z,41.85
2022-10-13T06:42:50.035Z,39.05
2022-10-13T06:45:16.859Z,45.38
2022-10-13T06:47:43.426Z,43.85
2022-10-13T06:50:10.007Z,39.28
2022-10-13T06:52:36.480Z,45.53
2022-10-13T06:55:03.160Z,38.60
2022-10-13T06:57:29.703Z,42.53
2022-10-13T06:59:56.247Z,38.70
2022-10-13T07:02:23.068Z,38.40
2022-10-13T07:04:49.895Z,31.60
2022-10-13T07:07:16.414Z,34.47
2022-10-13T07:09:42.896Z,46.63
2022-10-13T07:12:09.484Z,38.65
2022-10-13T07:14:38.181Z,36.22
2022-10-13T07:17:07.518Z,31.37
2022-10-13T07:19:34.174Z,29.95
2022-10-13T07:22:00.643Z,26.23
2022-10-13T07:24:27.573Z,23.95
2022-10-13T07:26:54.046Z,25.92
2022-10-13T07:29:20.578Z,31.23
2022-10-13T07:31:47.431Z,28.73
2022-10-13T07:34:15.512Z,21.30
2022-10-13T07:36:42.428Z,30.55
2022-10-13T07:39:09.811Z,28.23
2022-10-13T07:41:36.951Z,38.58
2022-10-13T07:44:03.596Z,32.22
2022-10-13T07:46:30.095Z,29.52
2022-10-13T07:48:56.713Z,33.17
2022-10-13T07:51:23.281Z,32.92
2022-10-13T07:53:50.684Z,47.33
2022-10-13T07:56:17.345Z,48.83
2022-10-13T07:58:46.435Z,40.88
2022-10-13T08:01:14.149Z,35.50
2022-10-13T08:03:45.602Z,41.13
2022-10-13T08:06:16.923Z,44.50
2022-10-13T08:08:43.494Z,42.67
2022-10-13T08:11:16.479Z,49.38
2022-10-13T08:13:48.071Z,41.90
2022-10-13T08:16:14.599Z,38.63
2022-10-13T08:18:41.099Z,40.03
2022-10-13T08:21:45.847Z,36.97
2022-10-13T08:23:59.356Z,35.95
2022-10-13T08:26:28.547Z,30.05
2022-10-13T08:29:16.658Z,41.92
2022-10-13T08:31:42.542Z,43.92
2022-10-13T08:34:10.365Z,34.72
2022-10-13T08:36:37.787Z,41.25
2022-10-13T08:39:05.118Z,38.35
2022-10-13T08:41:36.452Z,34.25
2022-10-13T08:47:19.286Z,48.55
2022-10-13T08:49:46.322Z,32.95
2022-10-13T08:52:23.027Z,42.63
2022-10-13T08:54:50.176Z,35.35
2022-10-13T08:57:17.549Z,34.78
2022-10-13T08:59:44.385Z,45.67
2022-10-13T09:02:29.083Z,49.28
2022-10-13T09:04:59.928Z,39.10
2022-10-13T09:07:31.541Z,35.10
2022-10-13T09:09:58.225Z,45.08
2022-10-13T09:12:25.826Z,35.88
2022-10-13T09:15:10.841Z,44.95
2022-10-13T09:17:40.136Z,32.90
2022-10-13T09:20:27.579Z,40.90
2022-10-13T09:23:19.418Z,42.97
2022-10-13T09:25:51.569Z,32.03
2022-10-13T09:28:30.022Z,33.53
2022-10-13T09:31:24.306Z,28.52
2022-10-13T09:34:22.531Z,37.58
2022-10-13T09:36:55.891Z,28.73
2022-10-13T09:39:22.751Z,29.35
2022-10-13T09:41:49.215Z,32.20
2022-10-13T09:44:28.846Z,26.58
2022-10-13T09:47:01.347Z,28.38
2022-10-13T09:49:39.638Z,34.22
2022-10-13T09:52:14.414Z,33.63
2022-10-13T09:54:41.017Z,31.13
2022-10-13T09:57:26.558Z,28.45
2022-10-13T10:00:04.368Z,37.22
2022-10-13T10:02:49.523Z,27.50
2022-10-13T10:05:27.539Z,33.85
2022-10-13T10:07:58.870Z,21.23
2022-10-13T10:10:33.943Z,25.20
2022-10-13T10:13:02.131Z,24.25
2022-10-13T10:15:38.798Z,35.90
2022-10-13T10:18:16.758Z,29.35
2022-10-13T10:21:07.896Z,26.10
2022-10-13T10:23:42.546Z,24.45
2022-10-13T10:26:18.197Z,20.42
2022-10-13T10:28:55.514Z,29.17
2022-10-13T10:31:55.669Z,27.30
2022-10-13T10:34:35.073Z,25.98
2022-10-13T10:37:21.427Z,24.48
2022-10-13T10:40:02.219Z,20.13
2022-10-13T10:42:47.287Z,24.90
2022-10-13T10:45:20.445Z,23.88
2022-10-13T10:47:51.528Z,26.83
2022-10-13T10:50:19.028Z,25.30
2022-10-13T10:52:55.339Z,24.65
2022-10-13T10:55:41.095Z,24.00
2022-10-13T10:58:22.481Z,21.00
2022-10-13T11:01:12.243Z,18.13
2022-10-13T11:03:46.721Z,25.20
2022-10-13T11:06:13.133Z,20.65
2022-10-13T11:08:42.388Z,21.55
2022-10-13T11:11:25.065Z,19.42
2022-10-13T11:13:56.401Z,19.35
2022-10-13T11:16:33.351Z,23.77
2022-10-13T11:19:07.866Z,21.30
2022-10-13T11:21:52.805Z,22.17
2022-10-13T11:24:39.283Z,14.68
2022-10-13T11:27:11.692Z,23.17
2022-10-13T11:29:44.485Z,21.15
2022-10-13T11:32:26.379Z,21.90
2022-10-13T11:38:06.798Z,17.70
2022-10-13T11:40:37.955Z,20.23
2022-10-13T11:43:13.121Z,20.05
2022-10-13T11:46:01.673Z,19.38
2022-10-13T11:48:34.051Z,19.33
2022-10-13T11:51:03.771Z,17.40
2022-10-13T11:53:44.510Z,17.58
2022-10-13T11:56:46.122Z,26.42
2022-10-13T11:59:33.698Z,26.63
2022-10-13T12:02:12.269Z,16.98
2022-10-13T12:04:46.342Z,18.17
2022-10-13T12:07:15.922Z,20.90
2022-10-13T12:09:57.426Z,26.83
2022-10-13T12:12:25.305Z,17.08
2022-10-13T12:14:54.997Z,19.83
2022-10-13T12:17:31.355Z,15.73
2022-10-13T12:20:03.610Z,18.05
2022-10-13T12:22:30.595Z,23.42
2022-10-13T12:25:06.320Z,19.27
2022-10-13T12:27:44.686Z,20.33
2022-10-13T12:30:30.942Z,12.95
2022-10-13T12:33:00.012Z,19.88
2022-10-13T12:35:33.760Z,19.02
2022-10-13T12:38:13.099Z,14.93
2022-10-13T12:40:40.011Z,15.48
2022-10-13T12:43:06.719Z,19.02
2022-10-13T12:45:35.240Z,17.90
2022-10-13T12:48:01.809Z,17.45
2022-10-13T12:50:28.255Z,14.90
2022-10-13T12:53:15.452Z,20.63
2022-10-13T12:55:59.056Z,16.70
2022-10-13T12:58:31.591Z,15.45
2022-10-13T13:01:03.957Z,16.08
2022-10-13T13:03:30.700Z,14.25
2022-10-13T13:06:14.405Z,22.42
2022-10-13T13:08:43.228Z,17.38
2022-10-13T13:11:35.857Z,19.75
2022-10-13T13:14:36.759Z,21.45
2022-10-13T13:17:38.559Z,16.35
2022-10-13T13:20:29.214Z,12.63
2022-10-13T13:22:56.010Z,23.65
2022-10-13T13:25:23.355Z,16.55
2022-10-13T13:27:50.872Z,17.60
2022-10-13T13:30:20.057Z,17.77
2022-10-13T13:32:46.737Z,16.13
2022-10-13T13:35:13.428Z,14.85
2022-10-13T13:37:44.405Z,16.48
2022-10-13T13:40:16.479Z,14.10
2022-10-13T13:42:42.963Z,18.70
2022-10-13T13:45:13.458Z,21.80
2022-10-13T13:47:40.004Z,13.25
2022-10-13T13:50:17.122Z,17.95
2022-10-13T13:52:43.698Z,14.18
2022-10-13T13:55:10.292Z,18.98
2022-10-13T13:57:36.871Z,17.90
2022-10-13T14:00:04.871Z,17.40
2022-10-13T14:02:31.432Z,17.90
2022-10-13T14:04:58.316Z,17.08
2022-10-13T14:07:24.820Z,14.88
2022-10-13T14:09:51.462Z,15.23
2022-10-13T14:12:18.291Z,20.33
2022-10-13T14:14:45.105Z,12.85
2022-10-13T14:17:11.564Z,18.38
2022-10-13T14:19:38.096Z,20.25
2022-10-13T14:22:09.180Z,19.27
2022-10-13T14:24:36.066Z,14.45
2022-10-13T14:27:02.591Z,17.88
2022-10-13T14:29:29.546Z,13.63
2022-10-13T14:31:56.237Z,14.45
2022-10-13T14:34:22.886Z,13.18
2022-10-13T14:36:49.348Z,17.13
2022-10-13T14:39:15.915Z,16.70
2022-10-13T14:41:42.422Z,18.10
2022-10-13T14:44:11.858Z,17.10
2022-10-13T14:46:38.440Z,14.63
2022-10-13T14:49:04.992Z,10.23
2022-10-13T14:51:32.430Z,15.90
2022-10-13T14:54:01.639Z,16.48
2022-10-13T14:56:32.453Z,12.52
2022-10-13T14:59:04.327Z,12.68
2022-10-13T15:01:31.292Z,15.65
2022-10-13T15:03:57.811Z,11.93
2022-10-13T15:06:26.235Z,14.55
2022-10-13T15:08:53.353Z,15.30
2022-10-13T15:11:21.682Z,15.45
2022-10-13T15:13:48.198Z,14.48
2022-10-13T15:16:23.548Z,14.70
2022-10-13T15:18:50.784Z,14.80
2022-10-13T15:21:18.090Z,15.98
2022-10-13T15:23:45.275Z,14.70
2022-10-13T15:26:13.826Z,13.00
2022-10-13T15:28:42.494Z,14.45
2022-10-13T15:31:09.008Z,16.88
2022-10-13T15:33:35.527Z,18.00
2022-10-13T15:36:02.307Z,17.77
2022-10-13T15:38:28.980Z,12.13
2022-10-13T15:41:03.253Z,16.67
2022-10-13T15:43:29.890Z,13.38
2022-10-13T15:46:00.376Z,13.68
2022-10-13T15:48:27.671Z,12.38
2022-10-13T15:50:54.160Z,12.27
2022-10-13T15:53:20.739Z,23.33
2022-10-13T15:55:48.154Z,14.98
2022-10-13T15:58:15.579Z,14.50
2022-10-13T16:00:42.937Z,13.80
2022-10-13T16:03:18.030Z,22.00
2022-10-13T16:05:46.038Z,16.40
2022-10-13T16:08:14.047Z,14.45
2022-10-13T16:10:42.074Z,17.23
2022-10-13T16:13:12.407Z,15.32
2022-10-13T16:15:38.926Z,14.73
2022-10-13T16:18:05.706Z,15.30
2022-10-13T16:20:35.053Z,15.40
2022-10-13T16:23:01.881Z,34.58
2022-10-13T16:25:29.356Z,37.47
2022-10-13T16:27:56.174Z,72.45
2022-10-13T16:30:22.712Z,53.88
2022-10-13T16:32:49.419Z,49.95
2022-10-13T16:35:16.133Z,30.17
2022-10-13T16:37:42.613Z,19.50
2022-10-13T16:40:09.542Z,20.17
2022-10-13T16:42:36.035Z,24.08
2022-10-13T16:45:02.510Z,25.33
2022-10-13T16:47:29.465Z,30.30
2022-10-13T16:49:55.931Z,28.67
2022-10-13T16:52:22.519Z,26.70
2022-10-13T16:54:48.992Z,25.98
2022-10-13T16:57:15.514Z,25.50
2022-10-13T16:59:42.014Z,29.13
2022-10-13T17:02:14.437Z,22.90
2022-10-13T17:04:41.433Z,27.92
2022-10-13T17:07:07.982Z,29.67
2022-10-13T17:09:34.441Z,22.08
2022-10-13T17:12:01.263Z,21.33
2022-10-13T17:14:27.778Z,18.90
2022-10-13T17:16:57.558Z,17.90
2022-10-13T17:19:24.399Z,16.95
2022-10-13T17:21:50.866Z,18.23
2022-10-13T17:24:17.420Z,17.30
2022-10-13T17:26:43.841Z,16.13
2022-10-13T17:29:10.656Z,18.13
2022-10-13T17:31:37.148Z,24.48
2022-10-13T17:34:03.587Z,16.30
2022-10-13T17:36:32.249Z,17.63
2022-10-13T17:39:06.856Z,17.33
2022-10-13T17:41:33.770Z,24.40
2022-10-13T17:44:00.287Z,18.38
2022-10-13T17:46:38.349Z,18.40
2022-10-13T17:49:07.280Z,18.40
2022-10-13T17:51:34.332Z,18.02
2022-10-13T17:54:01.303Z,19.20
2022-10-13T17:56:28.977Z,21.85
2022-10-13T17:58:55.822Z,17.83
2022-10-13T18:01:27.867Z,19.70
2022-10-13T18:03:59.825Z,23.08
2022-10-13T18:06:31.461Z,24.70
2022-10-13T18:09:04.735Z,23.55
2022-10-13T18:11:31.399Z,19.30
2022-10-13T18:13:58.771Z,26.75
2022-10-13T18:16:25.292Z,20.17
2022-10-13T18:18:53.754Z,20.85
2022-10-13T18:21:23.197Z,19.60
2022-10-13T18:23:49.946Z,20.00
2022-10-13T18:26:19.984Z,22.60
2022-10-13T18:28:48.488Z,25.52
2022-10-13T18:31:18.695Z,21.83
2022-10-13T18:33:45.601Z,18.27
2022-10-13T18:36:15.519Z,19.77
2022-10-13T18:38:42.455Z,17.23
2022-10-13T18:41:09.026Z,22.33
2022-10-13T18:43:35.488Z,20.25
2022-10-13T18:46:02.915Z,21.10
2022-10-13T18:48:29.531Z,18.73
2022-10-13T18:50:56.213Z,21.60
2022-10-13T18:53:22.947Z,19.23
2022-10-13T18:55:49.511Z,15.55
2022-10-13T18:58:16.075Z,15.18
2022-10-13T19:00:42.658Z,20.75
2022-10-13T19:03:09.549Z,23.70
2022-10-13T19:05:39.566Z,27.88
2022-10-13T19:08:09.388Z,25.50
2022-10-13T19:10:36.424Z,20.58
2022-10-13T19:13:03.203Z,22.40
2022-10-13T19:15:29.659Z,29.77
2022-10-13T19:17:56.134Z,19.13
2022-10-13T19:20:22.871Z,24.83
2022-10-13T19:22:49.326Z,20.45
2022-10-13T19:25:16.398Z,23.67
2022-10-13T19:27:43.048Z,21.55
2022-10-13T19:30:10.363Z,26.10
2022-10-13T19:32:39.578Z,18.17
2022-10-13T19:35:06.779Z,17.83
2022-10-13T19:37:33.417Z,22.05
2022-10-13T19:39:59.968Z,19.98
2022-10-13T19:42:27.069Z,24.25
2022-10-13T19:44:54.162Z,15.25
2022-10-13T19:47:21.451Z,21.23
2022-10-13T19:49:48.261Z,19.80
2022-10-13T19:52:15.312Z,21.95
2022-10-13T19:54:42.247Z,21.92
2022-10-13T19:57:09.220Z,16.90
2022-10-13T19:59:36.879Z,28.35
2022-10-13T20:02:04.452Z,22.17
2022-10-13T20:04:31.270Z,23.00
2022-10-13T20:06:57.717Z,17.20
2022-10-13T20:09:24.211Z,24.65
2022-10-13T20:11:51.942Z,21.67
2022-10-13T20:14:18.966Z,18.13
2022-10-13T20:16:45.894Z,22.10
2022-10-13T20:19:14.703Z,23.55
2022-10-13T20:21:41.278Z,23.98
2022-10-13T20:24:07.864Z,18.73
2022-10-13T20:26:34.535Z,22.88
2022-10-13T20:29:01.207Z,19.83
2022-10-13T20:31:27.988Z,22.20
2022-10-13T20:33:56.226Z,19.02
2022-10-13T20:36:24.100Z,22.25
2022-10-13T20:38:51.070Z,22.52
2022-10-13T20:41:21.679Z,24.17
2022-10-13T20:43:49.192Z,20.63
2022-10-13T20:46:17.478Z,18.52
2022-10-13T20:49:09.887Z,20.92
2022-10-13T20:51:31.028Z,16.70
2022-10-13T20:53:57.730Z,28.42
2022-10-13T20:56:26.289Z,17.77
2022-10-13T20:58:53.217Z,18.10
2022-10-13T21:01:21.680Z,23.00
2022-10-13T21:03:55.398Z,16.55
2022-10-13T21:06:23.856Z,26.38
2022-10-13T21:08:50.827Z,17.60
2022-10-13T21:11:20.116Z,18.52
2022-10-13T21:13:47.520Z,20.42
2022-10-13T21:16:19.832Z,17.85
2022-10-13T21:18:51.422Z,16.95
2022-10-13T21:21:22.286Z,16.08
2022-10-13T21:23:53.573Z,21.92
2022-10-13T21:26:22.412Z,16.27
2022-10-13T21:28:50.238Z,19.27
2022-10-13T21:31:18.384Z,13.18
2022-10-13T21:33:45.892Z,18.65
2022-10-13T21:36:16.380Z,20.40
2022-10-13T21:38:44.281Z,15.55
2022-10-13T21:41:12.749Z,20.65
2022-10-13T21:43:39.401Z,21.83
2022-10-13T21:46:16.506Z,23.50
2022-10-13T21:48:44.343Z,25.02
2022-10-13T21:51:22.526Z,24.38
2022-10-13T21:54:00.633Z,24.83
2022-10-13T21:56:28.110Z,22.38
2022-10-13T21:58:56.037Z,21.20
2022-10-13T22:01:23.867Z,21.88
2022-10-13T22:03:55.145Z,22.38
2022-10-13T22:06:21.997Z,27.40
2022-10-13T22:08:50.945Z,26.70
2022-10-13T22:11:18.434Z,19.60
2022-10-13T22:13:45.320Z,22.73
2022-10-13T22:16:20.754Z,18.88
2022-10-13T22:18:47.775Z,24.50
2022-10-13T22:21:17.399Z,19.90
2022-10-13T22:23:45.202Z,20.05
2022-10-13T22:26:13.612Z,19.50
2022-10-13T22:28:40.482Z,22.77
2022-10-13T22:31:08.786Z,20.35
2022-10-13T22:33:37.448Z,20.35
2022-10-13T22:36:24.640Z,20.23
2022-10-13T22:38:52.982Z,19.70
2022-10-13T22:41:20.029Z,22.88
2022-10-13T22:43:54.306Z,17.35
2022-10-13T22:46:23.655Z,23.33
2022-10-13T22:48:50.746Z,22.65
2022-10-13T22:51:20.210Z,17.33
2022-10-13T22:53:47.762Z,15.65
2022-10-13T22:56:17.395Z,21.23
2022-10-13T22:58:44.227Z,17.65
2022-10-13T23:01:13.947Z,22.40
2022-10-13T23:03:40.865Z,21.40
2022-10-13T23:06:12.300Z,17.05
2022-10-13T23:08:39.101Z,18.83
2022-10-13T23:11:05.685Z,16.35
2022-10-13T23:13:32.438Z,15.48
2022-10-13T23:16:03.592Z,18.20
2022-10-13T23:18:30.343Z,23.98
2022-10-13T23:20:57.191Z,17.58
2022-10-13T23:23:23.847Z,15.57
2022-10-13T23:25:50.410Z,20.90
2022-10-13T23:28:18.144Z,13.55
2022-10-13T23:30:44.600Z,24.90
2022-10-13T23:33:11.064Z,20.30
2022-10-13T23:35:37.546Z,20.33
2022-10-13T23:38:04.094Z,17.48
2022-10-13T23:40:30.621Z,15.60
2022-10-13T23:42:57.100Z,18.48
2022-10-13T23:45:23.536Z,17.17
2022-10-13T23:47:49.977Z,17.85
2022-10-13T23:50:16.518Z,20.23
2022-10-13T23:52:43.033Z,19.02
2022-10-13T23:55:09.578Z,20.33
2022-10-13T23:57:36.104Z,21.85
